East TN State Univ, Tennessee
Current Conditions -  °F | °C
As of 6:53 AM on Monday 26 Jan 2015 (Local Time) from KTRI Reporting Station
Light Rain Light Rain  
Wind Chill: 40°   Ceiling: 900
Heat Index: 40°   Visibility: 10mi
Dew Point: 39°   Wind: 3mph
Humidity: 97%   Direction: 220°SW
Pressure: 29.65"   Gusts: NA
Location:  36.3658°N, 82.4151°W
Report Text: KTRI 261153Z 22003KT 10SM -RA OVC009 04/04 A2965 RMK AO2 CIG 006V011 SLP032 P0000 60009 70009 T00440039 10061 20044 53005
Loading
Personal Weather Stations






























Interactive Weather Map New forecast layout! Learn more

10-Day Weather Forecast

Advertisements
Track Severe Weather on mobile